sensor_id;sensor_type;location;lat;lon;timestamp;P1;durP1;ratioP1;P2;durP2;ratioP2
48875;SDS011;34689;51.644;5.618;2023-03-31T00:00:11;2.55;;;0.98;;
48875;SDS011;34689;51.644;5.618;2023-03-31T00:02:38;2.40;;;0.70;;
48875;SDS011;34689;51.644;5.618;2023-03-31T00:05:06;3.33;;;0.65;;
48875;SDS011;34689;51.644;5.618;2023-03-31T00:07:33;3.38;;;0.88;;
48875;SDS011;34689;51.644;5.618;2023-03-31T00:10:03;2.15;;;0.65;;
48875;SDS011;34689;51.644;5.618;2023-03-31T00:12:30;3.15;;;0.88;;
48875;SDS011;34689;51.644;5.618;2023-03-31T00:14:56;3.25;;;1.35;;
48875;SDS011;34689;51.644;5.618;2023-03-31T00:17:24;3.58;;;0.80;;
48875;SDS011;34689;51.644;5.618;2023-03-31T00:19:50;2.38;;;0.65;;
48875;SDS011;34689;51.644;5.618;2023-03-31T00:22:15;0.85;;;0.40;;
48875;SDS011;34689;51.644;5.618;2023-03-31T00:24:43;2.00;;;0.70;;
48875;SDS011;34689;51.644;5.618;2023-03-31T00:27:09;2.15;;;0.45;;
48875;SDS011;34689;51.644;5.618;2023-03-31T00:29:35;4.50;;;0.60;;
48875;SDS011;34689;51.644;5.618;2023-03-31T00:32:05;0.73;;;0.45;;
48875;SDS011;34689;51.644;5.618;2023-03-31T00:34:31;1.10;;;0.55;;
48875;SDS011;34689;51.644;5.618;2023-03-31T00:36:57;1.90;;;0.50;;
48875;SDS011;34689;51.644;5.618;2023-03-31T00:39:27;0.40;;;0.30;;
48875;SDS011;34689;51.644;5.618;2023-03-31T00:41:56;2.78;;;0.60;;
48875;SDS011;34689;51.644;5.618;2023-03-31T00:44:23;2.72;;;0.80;;
48875;SDS011;34689;51.644;5.618;2023-03-31T00:47:00;3.03;;;0.40;;
48875;SDS011;34689;51.644;5.618;2023-03-31T00:52:20;2.90;;;0.47;;
48875;SDS011;34689;51.644;5.618;2023-03-31T00:54:56;1.67;;;0.50;;
48875;SDS011;34689;51.644;5.618;2023-03-31T00:57:25;1.67;;;0.40;;
48875;SDS011;34689;51.644;5.618;2023-03-31T00:59:56;3.58;;;0.57;;
48875;SDS011;34689;51.644;5.618;2023-03-31T01:02:26;2.80;;;0.60;;
48875;SDS011;34689;51.644;5.618;2023-03-31T01:04:54;2.10;;;0.30;;
48875;SDS011;34689;51.644;5.618;2023-03-31T01:07:27;1.75;;;0.35;;
48875;SDS011;34689;51.644;5.618;2023-03-31T01:10:16;3.40;;;0.63;;
48875;SDS011;34689;51.644;5.618;2023-03-31T01:12:46;2.47;;;0.30;;
48875;SDS011;34689;51.644;5.618;2023-03-31T01:15:14;1.00;;;0.50;;
48875;SDS011;34689;51.644;5.618;2023-03-31T01:17:40;1.73;;;0.47;;
48875;SDS011;34689;51.644;5.618;2023-03-31T01:41:54;1.38;;;0.60;;
48875;SDS011;34689;51.644;5.618;2023-03-31T01:47:30;3.50;;;0.52;;
48875;SDS011;34689;51.644;5.618;2023-03-31T01:50:26;4.22;;;1.10;;
48875;SDS011;34689;51.644;5.618;2023-03-31T01:55:35;4.40;;;0.75;;
48875;SDS011;34689;51.644;5.618;2023-03-31T01:58:14;2.58;;;0.75;;
48875;SDS011;34689;51.644;5.618;2023-03-31T02:00:48;5.47;;;1.20;;
48875;SDS011;34689;51.644;5.618;2023-03-31T02:03:27;6.10;;;1.00;;
48875;SDS011;34689;51.644;5.618;2023-03-31T02:06:04;4.50;;;1.13;;
48875;SDS011;34689;51.644;5.618;2023-03-31T02:08:53;1.38;;;0.80;;
48875;SDS011;34689;51.644;5.618;2023-03-31T02:11:22;3.63;;;0.98;;
48875;SDS011;34689;51.644;5.618;2023-03-31T02:13:50;3.03;;;0.65;;
48875;SDS011;34689;51.644;5.618;2023-03-31T02:16:21;4.70;;;0.98;;
48875;SDS011;34689;51.644;5.618;2023-03-31T02:21:18;3.15;;;0.52;;
48875;SDS011;34689;51.644;5.618;2023-03-31T02:23:44;4.80;;;1.25;;
48875;SDS011;34689;51.644;5.618;2023-03-31T02:26:17;0.90;;;0.60;;
48875;SDS011;34689;51.644;5.618;2023-03-31T02:28:47;0.98;;;0.50;;
48875;SDS011;34689;51.644;5.618;2023-03-31T02:33:53;6.45;;;1.00;;
48875;SDS011;34689;51.644;5.618;2023-03-31T02:36:20;4.78;;;0.63;;
48875;SDS011;34689;51.644;5.618;2023-03-31T02:38:53;3.70;;;1.17;;
48875;SDS011;34689;51.644;5.618;2023-03-31T02:41:29;2.33;;;0.43;;
48875;SDS011;34689;51.644;5.618;2023-03-31T02:43:54;4.57;;;0.63;;
48875;SDS011;34689;51.644;5.618;2023-03-31T02:46:20;4.82;;;1.38;;
48875;SDS011;34689;51.644;5.618;2023-03-31T02:48:50;1.90;;;0.88;;
48875;SDS011;34689;51.644;5.618;2023-03-31T02:54:16;2.72;;;0.60;;
48875;SDS011;34689;51.644;5.618;2023-03-31T03:00:14;2.00;;;0.70;;
48875;SDS011;34689;51.644;5.618;2023-03-31T03:10:57;1.33;;;0.50;;
48875;SDS011;34689;51.644;5.618;2023-03-31T03:13:41;0.82;;;0.32;;
48875;SDS011;34689;51.644;5.618;2023-03-31T03:16:35;4.40;;;0.93;;
48875;SDS011;34689;51.644;5.618;2023-03-31T03:19:07;1.05;;;0.68;;
48875;SDS011;34689;51.644;5.618;2023-03-31T03:21:34;1.75;;;0.50;;
48875;SDS011;34689;51.644;5.618;2023-03-31T03:24:00;3.22;;;0.77;;
48875;SDS011;34689;51.644;5.618;2023-03-31T03:26:26;3.15;;;0.52;;
48875;SDS011;34689;51.644;5.618;2023-03-31T03:28:52;3.55;;;1.60;;
48875;SDS011;34689;51.644;5.618;2023-03-31T03:31:19;3.58;;;0.50;;
48875;SDS011;34689;51.644;5.618;2023-03-31T03:33:50;4.72;;;0.60;;
48875;SDS011;34689;51.644;5.618;2023-03-31T03:36:17;2.30;;;0.77;;
48875;SDS011;34689;51.644;5.618;2023-03-31T03:38:43;3.90;;;1.35;;
48875;SDS011;34689;51.644;5.618;2023-03-31T03:41:09;5.28;;;0.80;;
48875;SDS011;34689;51.644;5.618;2023-03-31T03:43:34;6.65;;;0.98;;
48875;SDS011;34689;51.644;5.618;2023-03-31T03:46:00;5.65;;;0.70;;
48875;SDS011;34689;51.644;5.618;2023-03-31T03:48:26;3.90;;;0.57;;
48875;SDS011;34689;51.644;5.618;2023-03-31T03:50:54;4.07;;;0.52;;
48875;SDS011;34689;51.644;5.618;2023-03-31T03:53:20;0.85;;;0.28;;
48875;SDS011;34689;51.644;5.618;2023-03-31T03:55:48;8.30;;;1.27;;
48875;SDS011;34689;51.644;5.618;2023-03-31T03:58:14;0.70;;;0.50;;
48875;SDS011;34689;51.644;5.618;2023-03-31T04:00:41;1.73;;;0.60;;
48875;SDS011;34689;51.644;5.618;2023-03-31T04:03:08;5.30;;;1.00;;
48875;SDS011;34689;51.644;5.618;2023-03-31T04:05:35;3.47;;;0.95;;
48875;SDS011;34689;51.644;5.618;2023-03-31T04:08:01;2.63;;;0.70;;
48875;SDS011;34689;51.644;5.618;2023-03-31T04:10:28;1.85;;;0.70;;
48875;SDS011;34689;51.644;5.618;2023-03-31T04:12:54;5.72;;;0.93;;
48875;SDS011;34689;51.644;5.618;2023-03-31T04:15:19;5.82;;;1.15;;
48875;SDS011;34689;51.644;5.618;2023-03-31T04:17:48;1.02;;;0.50;;
48875;SDS011;34689;51.644;5.618;2023-03-31T04:20:18;6.63;;;0.75;;
48875;SDS011;34689;51.644;5.618;2023-03-31T04:22:45;2.20;;;0.70;;
48875;SDS011;34689;51.644;5.618;2023-03-31T04:25:15;4.78;;;0.68;;
48875;SDS011;34689;51.644;5.618;2023-03-31T04:27:41;3.85;;;0.70;;
48875;SDS011;34689;51.644;5.618;2023-03-31T04:30:15;2.65;;;0.32;;
48875;SDS011;34689;51.644;5.618;2023-03-31T04:32:59;5.20;;;1.05;;
48875;SDS011;34689;51.644;5.618;2023-03-31T04:35:28;4.05;;;0.60;;
48875;SDS011;34689;51.644;5.618;2023-03-31T04:38:13;1.58;;;0.38;;
48875;SDS011;34689;51.644;5.618;2023-03-31T04:40:51;1.77;;;0.60;;
48875;SDS011;34689;51.644;5.618;2023-03-31T04:43:18;1.80;;;0.65;;
48875;SDS011;34689;51.644;5.618;2023-03-31T04:45:45;1.30;;;0.43;;
48875;SDS011;34689;51.644;5.618;2023-03-31T04:48:11;2.45;;;0.30;;
48875;SDS011;34689;51.644;5.618;2023-03-31T04:50:37;1.05;;;0.40;;
48875;SDS011;34689;51.644;5.618;2023-03-31T04:53:03;1.55;;;0.60;;
48875;SDS011;34689;51.644;5.618;2023-03-31T04:55:30;4.78;;;0.80;;
48875;SDS011;34689;51.644;5.618;2023-03-31T04:57:58;0.98;;;0.55;;
48875;SDS011;34689;51.644;5.618;2023-03-31T05:00:24;3.00;;;0.60;;
48875;SDS011;34689;51.644;5.618;2023-03-31T05:02:53;3.85;;;0.65;;
48875;SDS011;34689;51.644;5.618;2023-03-31T05:05:18;3.53;;;0.60;;
48875;SDS011;34689;51.644;5.618;2023-03-31T05:07:45;3.22;;;0.70;;
48875;SDS011;34689;51.644;5.618;2023-03-31T05:10:11;1.23;;;0.40;;
48875;SDS011;34689;51.644;5.618;2023-03-31T05:12:37;2.53;;;1.15;;
48875;SDS011;34689;51.644;5.618;2023-03-31T05:15:04;3.53;;;0.70;;
48875;SDS011;34689;51.644;5.618;2023-03-31T05:17:31;2.05;;;0.63;;
48875;SDS011;34689;51.644;5.618;2023-03-31T05:19:57;5.25;;;0.75;;
48875;SDS011;34689;51.644;5.618;2023-03-31T05:22:23;3.38;;;0.50;;
48875;SDS011;34689;51.644;5.618;2023-03-31T05:24:52;1.35;;;0.35;;
48875;SDS011;34689;51.644;5.618;2023-03-31T05:27:17;2.55;;;0.50;;
48875;SDS011;34689;51.644;5.618;2023-03-31T05:29:45;2.80;;;0.82;;
48875;SDS011;34689;51.644;5.618;2023-03-31T05:32:11;1.17;;;0.30;;
48875;SDS011;34689;51.644;5.618;2023-03-31T05:34:37;1.08;;;0.50;;
48875;SDS011;34689;51.644;5.618;2023-03-31T05:37:03;1.65;;;0.50;;
48875;SDS011;34689;51.644;5.618;2023-03-31T05:39:32;0.88;;;0.50;;
48875;SDS011;34689;51.644;5.618;2023-03-31T05:42:00;3.53;;;0.80;;
48875;SDS011;34689;51.644;5.618;2023-03-31T05:44:27;5.13;;;1.08;;
48875;SDS011;34689;51.644;5.618;2023-03-31T05:46:52;2.45;;;0.60;;
48875;SDS011;34689;51.644;5.618;2023-03-31T05:49:18;1.45;;;0.75;;
48875;SDS011;34689;51.644;5.618;2023-03-31T05:51:44;2.60;;;0.70;;
48875;SDS011;34689;51.644;5.618;2023-03-31T05:54:10;2.38;;;0.77;;
48875;SDS011;34689;51.644;5.618;2023-03-31T05:56:37;1.38;;;0.52;;
48875;SDS011;34689;51.644;5.618;2023-03-31T05:59:02;2.92;;;0.60;;
48875;SDS011;34689;51.644;5.618;2023-03-31T06:01:28;1.60;;;0.65;;
48875;SDS011;34689;51.644;5.618;2023-03-31T06:03:54;3.42;;;0.65;;
48875;SDS011;34689;51.644;5.618;2023-03-31T06:06:22;2.78;;;0.40;;
48875;SDS011;34689;51.644;5.618;2023-03-31T06:08:49;0.47;;;0.30;;
48875;SDS011;34689;51.644;5.618;2023-03-31T06:11:17;1.85;;;0.50;;
48875;SDS011;34689;51.644;5.618;2023-03-31T06:13:43;3.38;;;0.50;;
48875;SDS011;34689;51.644;5.618;2023-03-31T06:16:10;2.65;;;0.90;;
48875;SDS011;34689;51.644;5.618;2023-03-31T06:18:37;1.10;;;0.40;;
48875;SDS011;34689;51.644;5.618;2023-03-31T06:21:03;6.63;;;0.60;;
48875;SDS011;34689;51.644;5.618;2023-03-31T06:23:33;1.60;;;0.63;;
48875;SDS011;34689;51.644;5.618;2023-03-31T06:26:05;2.72;;;0.30;;
48875;SDS011;34689;51.644;5.618;2023-03-31T06:28:32;1.15;;;0.30;;
48875;SDS011;34689;51.644;5.618;2023-03-31T06:31:02;1.38;;;0.50;;
48875;SDS011;34689;51.644;5.618;2023-03-31T06:33:30;2.20;;;0.35;;
48875;SDS011;34689;51.644;5.618;2023-03-31T06:35:56;1.30;;;0.57;;
48875;SDS011;34689;51.644;5.618;2023-03-31T06:38:23;4.20;;;0.60;;
48875;SDS011;34689;51.644;5.618;2023-03-31T06:40:50;1.58;;;0.50;;
48875;SDS011;34689;51.644;5.618;2023-03-31T06:43:15;1.38;;;0.43;;
48875;SDS011;34689;51.644;5.618;2023-03-31T06:45:41;7.13;;;0.77;;
48875;SDS011;34689;51.644;5.618;2023-03-31T06:48:07;2.92;;;0.68;;
48875;SDS011;34689;51.644;5.618;2023-03-31T06:50:38;2.30;;;0.40;;
48875;SDS011;34689;51.644;5.618;2023-03-31T06:53:06;1.50;;;0.40;;
48875;SDS011;34689;51.644;5.618;2023-03-31T06:55:35;0.85;;;0.85;;
48875;SDS011;34689;51.644;5.618;2023-03-31T06:58:01;1.92;;;0.40;;
48875;SDS011;34689;51.644;5.618;2023-03-31T07:00:30;0.40;;;0.20;;
48875;SDS011;34689;51.644;5.618;2023-03-31T07:02:57;2.85;;;0.43;;
48875;SDS011;34689;51.644;5.618;2023-03-31T07:05:25;2.00;;;0.30;;
48875;SDS011;34689;51.644;5.618;2023-03-31T07:07:55;1.15;;;0.28;;
48875;SDS011;34689;51.644;5.618;2023-03-31T07:10:23;3.00;;;0.38;;
48875;SDS011;34689;51.644;5.618;2023-03-31T07:12:50;0.70;;;0.47;;
48875;SDS011;34689;51.644;5.618;2023-03-31T07:15:16;1.02;;;0.63;;
48875;SDS011;34689;51.644;5.618;2023-03-31T07:17:42;1.40;;;0.20;;
48875;SDS011;34689;51.644;5.618;2023-03-31T07:20:11;0.77;;;0.30;;
48875;SDS011;34689;51.644;5.618;2023-03-31T07:22:39;3.33;;;0.70;;
48875;SDS011;34689;51.644;5.618;2023-03-31T07:25:06;2.20;;;1.05;;
48875;SDS011;34689;51.644;5.618;2023-03-31T07:27:32;1.98;;;0.65;;
48875;SDS011;34689;51.644;5.618;2023-03-31T07:29:58;8.05;;;0.80;;
48875;SDS011;34689;51.644;5.618;2023-03-31T07:32:24;3.70;;;0.98;;
48875;SDS011;34689;51.644;5.618;2023-03-31T07:34:50;7.88;;;1.10;;
48875;SDS011;34689;51.644;5.618;2023-03-31T07:37:16;4.25;;;0.95;;
48875;SDS011;34689;51.644;5.618;2023-03-31T07:39:41;1.98;;;0.88;;
48875;SDS011;34689;51.644;5.618;2023-03-31T07:42:07;2.22;;;0.80;;
48875;SDS011;34689;51.644;5.618;2023-03-31T07:44:36;1.75;;;0.75;;
48875;SDS011;34689;51.644;5.618;2023-03-31T07:47:02;5.00;;;0.90;;
48875;SDS011;34689;51.644;5.618;2023-03-31T07:49:30;3.15;;;1.58;;
48875;SDS011;34689;51.644;5.618;2023-03-31T07:51:57;3.75;;;0.98;;
48875;SDS011;34689;51.644;5.618;2023-03-31T07:54:26;3.75;;;0.75;;
48875;SDS011;34689;51.644;5.618;2023-03-31T07:56:52;3.80;;;1.00;;
48875;SDS011;34689;51.644;5.618;2023-03-31T07:59:18;3.15;;;0.90;;
48875;SDS011;34689;51.644;5.618;2023-03-31T08:01:44;7.18;;;1.45;;
48875;SDS011;34689;51.644;5.618;2023-03-31T08:04:11;2.20;;;0.65;;
48875;SDS011;34689;51.644;5.618;2023-03-31T08:06:37;5.05;;;0.95;;
48875;SDS011;34689;51.644;5.618;2023-03-31T08:09:04;4.78;;;0.82;;
48875;SDS011;34689;51.644;5.618;2023-03-31T08:11:32;4.78;;;1.05;;
48875;SDS011;34689;51.644;5.618;2023-03-31T08:13:58;2.33;;;0.60;;
48875;SDS011;34689;51.644;5.618;2023-03-31T08:16:24;2.95;;;1.45;;
48875;SDS011;34689;51.644;5.618;2023-03-31T08:18:49;2.33;;;0.50;;
48875;SDS011;34689;51.644;5.618;2023-03-31T08:21:15;1.65;;;0.80;;
48875;SDS011;34689;51.644;5.618;2023-03-31T08:23:41;6.97;;;1.50;;
48875;SDS011;34689;51.644;5.618;2023-03-31T08:26:11;3.17;;;1.00;;
48875;SDS011;34689;51.644;5.618;2023-03-31T08:28:38;3.03;;;0.83;;
48875;SDS011;34689;51.644;5.618;2023-03-31T08:31:05;3.00;;;0.93;;
48875;SDS011;34689;51.644;5.618;2023-03-31T08:33:32;6.00;;;1.20;;
48875;SDS011;34689;51.644;5.618;2023-03-31T08:36:05;3.47;;;0.80;;
48875;SDS011;34689;51.644;5.618;2023-03-31T08:38:34;4.90;;;1.30;;
48875;SDS011;34689;51.644;5.618;2023-03-31T08:41:06;5.63;;;1.73;;
48875;SDS011;34689;51.644;5.618;2023-03-31T08:43:42;1.75;;;0.70;;
48875;SDS011;34689;51.644;5.618;2023-03-31T08:46:11;4.32;;;0.93;;
48875;SDS011;34689;51.644;5.618;2023-03-31T08:48:40;7.82;;;1.95;;
48875;SDS011;34689;51.644;5.618;2023-03-31T08:53:47;14.02;;;2.90;;
48875;SDS011;34689;51.644;5.618;2023-03-31T08:56:19;3.85;;;1.00;;
48875;SDS011;34689;51.644;5.618;2023-03-31T08:58:47;6.68;;;0.93;;
48875;SDS011;34689;51.644;5.618;2023-03-31T09:06:35;8.63;;;1.70;;
48875;SDS011;34689;51.644;5.618;2023-03-31T09:09:02;9.38;;;1.85;;
48875;SDS011;34689;51.644;5.618;2023-03-31T09:11:35;4.85;;;1.65;;
48875;SDS011;34689;51.644;5.618;2023-03-31T09:14:15;9.60;;;2.00;;
48875;SDS011;34689;51.644;5.618;2023-03-31T09:17:01;10.02;;;1.75;;
48875;SDS011;34689;51.644;5.618;2023-03-31T09:19:55;6.38;;;1.38;;
48875;SDS011;34689;51.644;5.618;2023-03-31T09:22:42;4.78;;;1.02;;
48875;SDS011;34689;51.644;5.618;2023-03-31T09:27:46;4.30;;;1.75;;
48875;SDS011;34689;51.644;5.618;2023-03-31T09:30:15;6.85;;;1.23;;
48875;SDS011;34689;51.644;5.618;2023-03-31T09:32:44;9.05;;;2.08;;
48875;SDS011;34689;51.644;5.618;2023-03-31T09:35:18;8.63;;;1.13;;
48875;SDS011;34689;51.644;5.618;2023-03-31T09:37:49;7.72;;;1.63;;
48875;SDS011;34689;51.644;5.618;2023-03-31T09:40:19;5.35;;;1.10;;
48875;SDS011;34689;51.644;5.618;2023-03-31T09:42:48;8.93;;;1.83;;
48875;SDS011;34689;51.644;5.618;2023-03-31T09:45:22;5.88;;;1.63;;
48875;SDS011;34689;51.644;5.618;2023-03-31T09:47:49;7.63;;;1.42;;
48875;SDS011;34689;51.644;5.618;2023-03-31T09:50:18;11.40;;;2.50;;
48875;SDS011;34689;51.644;5.618;2023-03-31T09:52:47;6.40;;;1.40;;
48875;SDS011;34689;51.644;5.618;2023-03-31T09:58:24;4.63;;;0.95;;
48875;SDS011;34689;51.644;5.618;2023-03-31T10:03:24;11.80;;;2.65;;
48875;SDS011;34689;51.644;5.618;2023-03-31T10:05:53;4.43;;;0.95;;
48875;SDS011;34689;51.644;5.618;2023-03-31T10:11:09;5.63;;;1.10;;
48875;SDS011;34689;51.644;5.618;2023-03-31T10:13:44;5.65;;;1.65;;
48875;SDS011;34689;51.644;5.618;2023-03-31T10:16:33;6.05;;;1.38;;
48875;SDS011;34689;51.644;5.618;2023-03-31T10:19:12;11.50;;;1.63;;
48875;SDS011;34689;51.644;5.618;2023-03-31T10:21:45;7.38;;;1.17;;
48875;SDS011;34689;51.644;5.618;2023-03-31T10:24:16;7.22;;;1.63;;
48875;SDS011;34689;51.644;5.618;2023-03-31T10:26:46;7.72;;;1.35;;
48875;SDS011;34689;51.644;5.618;2023-03-31T10:29:14;6.53;;;1.15;;
48875;SDS011;34689;51.644;5.618;2023-03-31T10:32:01;3.70;;;1.02;;
48875;SDS011;34689;51.644;5.618;2023-03-31T10:34:30;6.97;;;0.88;;
48875;SDS011;34689;51.644;5.618;2023-03-31T10:36:56;8.10;;;1.50;;
48875;SDS011;34689;51.644;5.618;2023-03-31T10:39:22;5.45;;;1.13;;
48875;SDS011;34689;51.644;5.618;2023-03-31T10:41:55;6.90;;;1.20;;
48875;SDS011;34689;51.644;5.618;2023-03-31T10:47:03;3.35;;;0.82;;
48875;SDS011;34689;51.644;5.618;2023-03-31T10:49:33;4.32;;;1.15;;
48875;SDS011;34689;51.644;5.618;2023-03-31T10:52:02;5.85;;;1.05;;
48875;SDS011;34689;51.644;5.618;2023-03-31T10:54:37;2.95;;;0.82;;
48875;SDS011;34689;51.644;5.618;2023-03-31T10:57:11;14.23;;;1.83;;
48875;SDS011;34689;51.644;5.618;2023-03-31T11:08:10;6.95;;;0.93;;
48875;SDS011;34689;51.644;5.618;2023-03-31T11:16:14;4.20;;;0.85;;
48875;SDS011;34689;51.644;5.618;2023-03-31T11:21:27;5.75;;;1.73;;
48875;SDS011;34689;51.644;5.618;2023-03-31T11:41:23;5.03;;;1.10;;
48875;SDS011;34689;51.644;5.618;2023-03-31T11:43:59;5.68;;;1.00;;
48875;SDS011;34689;51.644;5.618;2023-03-31T11:46:38;4.45;;;1.40;;
48875;SDS011;34689;51.644;5.618;2023-03-31T11:51:52;2.72;;;1.15;;
48875;SDS011;34689;51.644;5.618;2023-03-31T11:56:55;5.65;;;1.00;;
48875;SDS011;34689;51.644;5.618;2023-03-31T11:59:24;5.15;;;1.40;;
48875;SDS011;34689;51.644;5.618;2023-03-31T12:01:56;4.18;;;0.95;;
48875;SDS011;34689;51.644;5.618;2023-03-31T12:04:48;5.82;;;1.15;;
48875;SDS011;34689;51.644;5.618;2023-03-31T12:07:30;9.93;;;2.38;;
48875;SDS011;34689;51.644;5.618;2023-03-31T12:12:41;6.88;;;1.33;;
48875;SDS011;34689;51.644;5.618;2023-03-31T12:17:54;9.52;;;1.60;;
48875;SDS011;34689;51.644;5.618;2023-03-31T12:22:55;5.03;;;1.05;;
48875;SDS011;34689;51.644;5.618;2023-03-31T12:25:24;7.25;;;1.58;;
48875;SDS011;34689;51.644;5.618;2023-03-31T12:27:52;5.03;;;0.95;;
48875;SDS011;34689;51.644;5.618;2023-03-31T12:30:30;5.47;;;1.55;;
48875;SDS011;34689;51.644;5.618;2023-03-31T12:33:05;3.13;;;0.80;;
48875;SDS011;34689;51.644;5.618;2023-03-31T12:41:31;3.60;;;1.08;;
48875;SDS011;34689;51.644;5.618;2023-03-31T12:44:29;2.83;;;0.98;;
48875;SDS011;34689;51.644;5.618;2023-03-31T12:47:12;7.32;;;1.10;;
48875;SDS011;34689;51.644;5.618;2023-03-31T13:06:02;5.40;;;1.50;;
48875;SDS011;34689;51.644;5.618;2023-03-31T13:08:48;4.68;;;0.88;;
48875;SDS011;34689;51.644;5.618;2023-03-31T13:11:14;3.60;;;1.25;;
48875;SDS011;34689;51.644;5.618;2023-03-31T13:14:00;7.10;;;1.13;;
48875;SDS011;34689;51.644;5.618;2023-03-31T13:16:32;9.10;;;1.38;;
48875;SDS011;34689;51.644;5.618;2023-03-31T13:18:59;4.20;;;1.10;;
48875;SDS011;34689;51.644;5.618;2023-03-31T13:21:25;5.88;;;1.30;;
48875;SDS011;34689;51.644;5.618;2023-03-31T13:23:51;3.83;;;1.00;;
48875;SDS011;34689;51.644;5.618;2023-03-31T13:29:44;4.13;;;1.00;;
48875;SDS011;34689;51.644;5.618;2023-03-31T13:34:26;1.52;;;0.63;;
48875;SDS011;34689;51.644;5.618;2023-03-31T13:56:36;3.78;;;0.50;;
48875;SDS011;34689;51.644;5.618;2023-03-31T14:02:17;2.00;;;0.30;;
48875;SDS011;34689;51.644;5.618;2023-03-31T14:10:37;0.85;;;0.40;;
48875;SDS011;34689;51.644;5.618;2023-03-31T14:13:09;3.97;;;0.95;;
48875;SDS011;34689;51.644;5.618;2023-03-31T14:15:38;2.00;;;0.60;;
48875;SDS011;34689;51.644;5.618;2023-03-31T14:18:09;1.60;;;0.80;;
48875;SDS011;34689;51.644;5.618;2023-03-31T14:20:41;2.90;;;0.57;;
48875;SDS011;34689;51.644;5.618;2023-03-31T14:23:15;3.10;;;0.65;;
48875;SDS011;34689;51.644;5.618;2023-03-31T14:28:38;2.40;;;0.50;;
48875;SDS011;34689;51.644;5.618;2023-03-31T14:31:27;4.18;;;0.77;;
48875;SDS011;34689;51.644;5.618;2023-03-31T14:34:15;4.90;;;0.88;;
48875;SDS011;34689;51.644;5.618;2023-03-31T14:36:52;3.55;;;0.60;;
48875;SDS011;34689;51.644;5.618;2023-03-31T14:39:34;3.58;;;0.45;;
48875;SDS011;34689;51.644;5.618;2023-03-31T14:42:05;1.83;;;0.55;;
48875;SDS011;34689;51.644;5.618;2023-03-31T14:44:37;3.72;;;1.00;;
48875;SDS011;34689;51.644;5.618;2023-03-31T14:47:04;4.55;;;1.58;;
48875;SDS011;34689;51.644;5.618;2023-03-31T14:49:34;3.53;;;0.70;;
48875;SDS011;34689;51.644;5.618;2023-03-31T14:54:51;1.98;;;0.38;;
48875;SDS011;34689;51.644;5.618;2023-03-31T14:57:21;0.93;;;0.30;;
48875;SDS011;34689;51.644;5.618;2023-03-31T15:00:07;4.38;;;0.65;;
48875;SDS011;34689;51.644;5.618;2023-03-31T15:02:40;2.33;;;0.35;;
48875;SDS011;34689;51.644;5.618;2023-03-31T15:05:08;2.38;;;0.60;;
48875;SDS011;34689;51.644;5.618;2023-03-31T15:07:45;5.53;;;0.80;;
48875;SDS011;34689;51.644;5.618;2023-03-31T15:10:12;1.02;;;0.55;;
48875;SDS011;34689;51.644;5.618;2023-03-31T15:12:43;1.40;;;0.32;;
48875;SDS011;34689;51.644;5.618;2023-03-31T15:15:11;0.52;;;0.10;;
48875;SDS011;34689;51.644;5.618;2023-03-31T15:17:39;1.52;;;0.20;;
48875;SDS011;34689;51.644;5.618;2023-03-31T15:22:56;1.20;;;0.30;;
48875;SDS011;34689;51.644;5.618;2023-03-31T15:25:23;1.15;;;0.28;;
48875;SDS011;34689;51.644;5.618;2023-03-31T15:28:09;0.90;;;0.20;;
48875;SDS011;34689;51.644;5.618;2023-03-31T15:30:38;0.82;;;0.25;;
48875;SDS011;34689;51.644;5.618;2023-03-31T15:33:07;3.33;;;0.50;;
48875;SDS011;34689;51.644;5.618;2023-03-31T15:35:39;0.13;;;0.13;;
48875;SDS011;34689;51.644;5.618;2023-03-31T15:38:05;1.10;;;0.45;;
48875;SDS011;34689;51.644;5.618;2023-03-31T15:40:37;0.75;;;0.20;;
48875;SDS011;34689;51.644;5.618;2023-03-31T15:48:03;0.10;;;0.10;;
48875;SDS011;34689;51.644;5.618;2023-03-31T15:50:39;1.60;;;0.15;;
48875;SDS011;34689;51.644;5.618;2023-03-31T15:53:18;0.63;;;0.13;;
48875;SDS011;34689;51.644;5.618;2023-03-31T15:58:17;1.38;;;0.15;;
48875;SDS011;34689;51.644;5.618;2023-03-31T16:01:25;1.10;;;0.00;;
48875;SDS011;34689;51.644;5.618;2023-03-31T16:03:33;0.55;;;0.20;;
48875;SDS011;34689;51.644;5.618;2023-03-31T16:06:14;2.13;;;0.20;;
48875;SDS011;34689;51.644;5.618;2023-03-31T16:08:44;1.02;;;0.32;;
48875;SDS011;34689;51.644;5.618;2023-03-31T16:11:22;1.17;;;0.25;;
48875;SDS011;34689;51.644;5.618;2023-03-31T16:17:22;0.55;;;0.20;;
48875;SDS011;34689;51.644;5.618;2023-03-31T16:19:54;0.73;;;0.10;;
48875;SDS011;34689;51.644;5.618;2023-03-31T16:22:25;0.63;;;0.25;;
48875;SDS011;34689;51.644;5.618;2023-03-31T16:24:58;0.20;;;0.10;;
48875;SDS011;34689;51.644;5.618;2023-03-31T16:27:24;0.93;;;0.30;;
48875;SDS011;34689;51.644;5.618;2023-03-31T16:29:50;0.45;;;0.20;;
48875;SDS011;34689;51.644;5.618;2023-03-31T16:32:34;0.20;;;0.10;;
48875;SDS011;34689;51.644;5.618;2023-03-31T16:35:01;0.80;;;0.25;;
48875;SDS011;34689;51.644;5.618;2023-03-31T16:37:29;0.77;;;0.17;;
48875;SDS011;34689;51.644;5.618;2023-03-31T16:39:55;0.40;;;0.10;;
48875;SDS011;34689;51.644;5.618;2023-03-31T16:42:21;0.32;;;0.20;;
48875;SDS011;34689;51.644;5.618;2023-03-31T16:44:47;0.40;;;0.13;;
48875;SDS011;34689;51.644;5.618;2023-03-31T16:47:13;2.85;;;0.40;;
48875;SDS011;34689;51.644;5.618;2023-03-31T16:49:39;0.45;;;0.20;;
48875;SDS011;34689;51.644;5.618;2023-03-31T16:52:05;0.73;;;0.17;;
48875;SDS011;34689;51.644;5.618;2023-03-31T16:54:33;0.47;;;0.17;;
48875;SDS011;34689;51.644;5.618;2023-03-31T16:56:58;2.10;;;0.68;;
48875;SDS011;34689;51.644;5.618;2023-03-31T16:59:25;0.20;;;0.10;;
48875;SDS011;34689;51.644;5.618;2023-03-31T17:01:51;2.03;;;0.45;;
48875;SDS011;34689;51.644;5.618;2023-03-31T17:04:17;1.67;;;0.22;;
48875;SDS011;34689;51.644;5.618;2023-03-31T17:06:46;0.88;;;0.30;;
48875;SDS011;34689;51.644;5.618;2023-03-31T17:09:12;2.65;;;0.10;;
48875;SDS011;34689;51.644;5.618;2023-03-31T17:11:38;1.02;;;0.43;;
48875;SDS011;34689;51.644;5.618;2023-03-31T17:14:04;0.60;;;0.20;;
48875;SDS011;34689;51.644;5.618;2023-03-31T17:16:30;0.70;;;0.22;;
48875;SDS011;34689;51.644;5.618;2023-03-31T17:18:58;0.70;;;0.10;;
48875;SDS011;34689;51.644;5.618;2023-03-31T17:21:24;1.08;;;0.30;;
48875;SDS011;34689;51.644;5.618;2023-03-31T17:23:50;0.73;;;0.25;;
48875;SDS011;34689;51.644;5.618;2023-03-31T17:26:15;0.75;;;0.20;;
48875;SDS011;34689;51.644;5.618;2023-03-31T17:28:42;3.75;;;0.43;;
48875;SDS011;34689;51.644;5.618;2023-03-31T17:31:12;1.13;;;0.55;;
48875;SDS011;34689;51.644;5.618;2023-03-31T17:33:39;2.45;;;0.50;;
48875;SDS011;34689;51.644;5.618;2023-03-31T17:36:05;4.32;;;0.60;;
48875;SDS011;34689;51.644;5.618;2023-03-31T17:38:31;1.90;;;0.30;;
48875;SDS011;34689;51.644;5.618;2023-03-31T17:41:02;1.38;;;0.50;;
48875;SDS011;34689;51.644;5.618;2023-03-31T17:43:32;0.57;;;0.30;;
48875;SDS011;34689;51.644;5.618;2023-03-31T17:46:00;1.88;;;0.25;;
48875;SDS011;34689;51.644;5.618;2023-03-31T17:48:30;1.42;;;0.43;;
48875;SDS011;34689;51.644;5.618;2023-03-31T17:51:02;0.63;;;0.63;;
48875;SDS011;34689;51.644;5.618;2023-03-31T17:53:29;1.25;;;0.50;;
48875;SDS011;34689;51.644;5.618;2023-03-31T17:55:55;0.70;;;0.32;;
48875;SDS011;34689;51.644;5.618;2023-03-31T17:58:21;1.75;;;0.30;;
48875;SDS011;34689;51.644;5.618;2023-03-31T18:00:47;2.17;;;0.43;;
48875;SDS011;34689;51.644;5.618;2023-03-31T18:03:16;0.30;;;0.20;;
48875;SDS011;34689;51.644;5.618;2023-03-31T18:05:41;1.52;;;0.20;;
48875;SDS011;34689;51.644;5.618;2023-03-31T18:08:08;0.77;;;0.40;;
48875;SDS011;34689;51.644;5.618;2023-03-31T18:10:34;1.30;;;0.38;;
48875;SDS011;34689;51.644;5.618;2023-03-31T18:13:00;1.65;;;0.20;;
48875;SDS011;34689;51.644;5.618;2023-03-31T18:15:26;0.88;;;0.20;;
48875;SDS011;34689;51.644;5.618;2023-03-31T18:17:52;0.13;;;0.13;;